sensor_id;sensor_type;location;lat;lon;timestamp;pressure;altitude;pressure_sealevel;temperature;humidity
77749;BME280;66938;52.084;5.228;2023-02-28T00:01:11;103345.0;;;0.88;80.49
77749;BME280;66938;52.084;5.228;2023-02-28T00:02:47;103340.00000000001;;;0.9;80.36
77749;BME280;66938;52.084;5.228;2023-02-28T00:06:01;103345.0;;;0.86;80.08
77749;BME280;66938;52.084;5.228;2023-02-28T00:07:37;103342.0;;;0.86;80.44
77749;BME280;66938;52.084;5.228;2023-02-28T00:09:14;103340.00000000001;;;0.88;80.28
77749;BME280;66938;52.084;5.228;2023-02-28T00:12:27;103343.0;;;0.9;80.11
77749;BME280;66938;52.084;5.228;2023-02-28T00:14:03;103345.0;;;0.99;80.61
77749;BME280;66938;52.084;5.228;2023-02-28T00:15:39;103345.0;;;1.04;80.52
77749;BME280;66938;52.084;5.228;2023-02-28T00:18:51;103346.0;;;1.03;81.33
77749;BME280;66938;52.084;5.228;2023-02-28T00:20:27;103353.0;;;1.05;81.08
77749;BME280;66938;52.084;5.228;2023-02-28T00:22:03;103351.0;;;1.06;81.59
77749;BME280;66938;52.084;5.228;2023-02-28T00:23:39;103349.0;;;1.15;81.37
77749;BME280;66938;52.084;5.228;2023-02-28T00:26:56;103350.0;;;1.17;80.72
77749;BME280;66938;52.084;5.228;2023-02-28T00:28:32;103355.0;;;1.31;80.52
77749;BME280;66938;52.084;5.228;2023-02-28T00:30:11;103347.0;;;1.32;80.52
77749;BME280;66938;52.084;5.228;2023-02-28T00:33:28;103343.0;;;1.37;80.3
77749;BME280;66938;52.084;5.228;2023-02-28T00:35:06;103351.0;;;1.46;79.89
77749;BME280;66938;52.084;5.228;2023-02-28T00:36:43;103346.0;;;1.53;80.11
77749;BME280;66938;52.084;5.228;2023-02-28T00:38:19;103353.0;;;1.57;80.0
77749;BME280;66938;52.084;5.228;2023-02-28T00:41:32;103348.0;;;1.64;79.94
77749;BME280;66938;52.084;5.228;2023-02-28T00:43:08;103348.0;;;1.7;79.86
77749;BME280;66938;52.084;5.228;2023-02-28T00:44:44;103351.0;;;1.73;79.86
77749;BME280;66938;52.084;5.228;2023-02-28T00:47:57;103352.0;;;1.79;79.8
77749;BME280;66938;52.084;5.228;2023-02-28T00:49:33;103352.0;;;1.73;79.44
77749;BME280;66938;52.084;5.228;2023-02-28T00:51:09;103349.0;;;1.77;79.22
77749;BME280;66938;52.084;5.228;2023-02-28T00:54:23;103345.0;;;1.85;79.19
77749;BME280;66938;52.084;5.228;2023-02-28T00:56:00;103340.00000000001;;;1.88;79.19
77749;BME280;66938;52.084;5.228;2023-02-28T00:57:36;103334.99999999999;;;1.99;79.14
77749;BME280;66938;52.084;5.228;2023-02-28T00:59:12;103339.00000000001;;;2.0;79.08
77749;BME280;66938;52.084;5.228;2023-02-28T01:02:26;103339.00000000001;;;2.05;78.99
77749;BME280;66938;52.084;5.228;2023-02-28T01:04:02;103341.00000000001;;;2.06;79.06
77749;BME280;66938;52.084;5.228;2023-02-28T01:05:38;103333.99999999999;;;2.07;78.42
77749;BME280;66938;52.084;5.228;2023-02-28T01:08:51;103338.00000000001;;;2.06;78.48
77749;BME280;66938;52.084;5.228;2023-02-28T01:10:28;103342.0;;;2.13;78.7
77749;BME280;66938;52.084;5.228;2023-02-28T01:12:04;103344.0;;;2.23;78.81
77749;BME280;66938;52.084;5.228;2023-02-28T01:15:17;103343.0;;;2.31;78.5
77749;BME280;66938;52.084;5.228;2023-02-28T01:16:53;103346.0;;;2.29;78.59
77749;BME280;66938;52.084;5.228;2023-02-28T01:18:29;103342.0;;;2.31;78.94
77749;BME280;66938;52.084;5.228;2023-02-28T01:20:06;103338.00000000001;;;2.31;78.44
77749;BME280;66938;52.084;5.228;2023-02-28T01:23:19;103340.00000000001;;;2.31;78.58
77749;BME280;66938;52.084;5.228;2023-02-28T01:24:56;103336.99999999999;;;2.36;78.45
77749;BME280;66938;52.084;5.228;2023-02-28T01:26:32;103342.0;;;2.36;78.2
77749;BME280;66938;52.084;5.228;2023-02-28T01:29:44;103339.00000000001;;;2.39;78.17
77749;BME280;66938;52.084;5.228;2023-02-28T01:31:21;103342.0;;;2.44;78.3
77749;BME280;66938;52.084;5.228;2023-02-28T01:32:59;103338.00000000001;;;2.48;78.53
77749;BME280;66938;52.084;5.228;2023-02-28T01:36:13;103339.00000000001;;;2.52;78.44
77749;BME280;66938;52.084;5.228;2023-02-28T01:37:51;103328.0;;;2.5;78.06
77749;BME280;66938;52.084;5.228;2023-02-28T01:39:27;103331.0;;;2.5;77.42
77749;BME280;66938;52.084;5.228;2023-02-28T01:41:04;103331.0;;;2.56;77.44
77749;BME280;66938;52.084;5.228;2023-02-28T01:45:23;103333.0;;;2.56;77.41
77749;BME280;66938;52.084;5.228;2023-02-28T01:47:02;103331.0;;;2.59;77.77
77749;BME280;66938;52.084;5.228;2023-02-28T01:48:40;103330.0;;;2.6;77.7
77749;BME280;66938;52.084;5.228;2023-02-28T01:50:20;103330.0;;;2.62;77.83
77749;BME280;66938;52.084;5.228;2023-02-28T01:51:58;103321.0;;;2.69;77.8
77749;BME280;66938;52.084;5.228;2023-02-28T01:53:37;103324.0;;;2.71;77.74
77749;BME280;66938;52.084;5.228;2023-02-28T01:57:04;103326.0;;;2.83;77.53
77749;BME280;66938;52.084;5.228;2023-02-28T01:58:41;103322.0;;;2.86;77.48
77749;BME280;66938;52.084;5.228;2023-02-28T02:00:20;103318.0;;;2.87;77.48
77749;BME280;66938;52.084;5.228;2023-02-28T02:01:59;103317.0;;;2.92;77.16
77749;BME280;66938;52.084;5.228;2023-02-28T02:05:16;103317.0;;;2.93;76.61
77749;BME280;66938;52.084;5.228;2023-02-28T02:06:53;103316.00000000001;;;2.94;76.91
77749;BME280;66938;52.084;5.228;2023-02-28T02:08:31;103311.99999999999;;;2.93;77.02
77749;BME280;66938;52.084;5.228;2023-02-28T02:11:51;103306.0;;;2.96;77.13
77749;BME280;66938;52.084;5.228;2023-02-28T02:13:35;103300.0;;;2.97;77.12
77749;BME280;66938;52.084;5.228;2023-02-28T02:15:32;103296.0;;;3.01;77.05
77749;BME280;66938;52.084;5.228;2023-02-28T02:17:18;103298.0;;;3.03;76.89
77749;BME280;66938;52.084;5.228;2023-02-28T02:19:08;103295.0;;;3.01;76.66
77749;BME280;66938;52.084;5.228;2023-02-28T02:22:48;103292.0;;;2.92;76.88
77749;BME280;66938;52.084;5.228;2023-02-28T02:25:13;103296.0;;;3.03;76.8
77749;BME280;66938;52.084;5.228;2023-02-28T02:27:05;103295.0;;;2.97;77.11
77749;BME280;66938;52.084;5.228;2023-02-28T02:30:01;103294.0;;;2.9;77.61
77749;BME280;66938;52.084;5.228;2023-02-28T02:32:28;103301.0;;;2.99;77.33
77749;BME280;66938;52.084;5.228;2023-02-28T02:35:29;103302.0;;;3.03;77.72
77749;BME280;66938;52.084;5.228;2023-02-28T02:39:02;103303.0;;;3.09;77.36
77749;BME280;66938;52.084;5.228;2023-02-28T02:40:47;103307.0;;;3.17;77.23
77749;BME280;66938;52.084;5.228;2023-02-28T02:42:36;103316.00000000001;;;3.1;77.05
77749;BME280;66938;52.084;5.228;2023-02-28T02:44:20;103314.00000000001;;;3.1;77.23
77749;BME280;66938;52.084;5.228;2023-02-28T02:46:01;103315.00000000001;;;3.12;77.05
77749;BME280;66938;52.084;5.228;2023-02-28T02:49:23;103308.99999999999;;;3.14;76.56
77749;BME280;66938;52.084;5.228;2023-02-28T02:51:03;103309.99999999999;;;3.17;76.16
77749;BME280;66938;52.084;5.228;2023-02-28T02:52:44;103308.0;;;3.15;75.72
77749;BME280;66938;52.084;5.228;2023-02-28T02:54:35;103307.0;;;3.13;76.41
77749;BME280;66938;52.084;5.228;2023-02-28T02:57:54;103306.0;;;3.2;76.31
77749;BME280;66938;52.084;5.228;2023-02-28T02:59:35;103307.0;;;3.13;76.59
77749;BME280;66938;52.084;5.228;2023-02-28T03:01:16;103311.99999999999;;;3.21;76.34
77749;BME280;66938;52.084;5.228;2023-02-28T03:02:55;103316.00000000001;;;3.17;76.67
77749;BME280;66938;52.084;5.228;2023-02-28T03:06:18;103308.99999999999;;;3.17;76.69
77749;BME280;66938;52.084;5.228;2023-02-28T03:07:54;103311.99999999999;;;3.17;76.36
77749;BME280;66938;52.084;5.228;2023-02-28T03:09:33;103311.99999999999;;;3.15;76.38
77749;BME280;66938;52.084;5.228;2023-02-28T03:11:12;103318.0;;;3.23;76.5
77749;BME280;66938;52.084;5.228;2023-02-28T03:14:47;103316.00000000001;;;3.24;76.34
77749;BME280;66938;52.084;5.228;2023-02-28T03:16:35;103316.00000000001;;;3.17;76.45
77749;BME280;66938;52.084;5.228;2023-02-28T03:18:23;103317.0;;;3.27;76.69
77749;BME280;66938;52.084;5.228;2023-02-28T03:20:07;103311.99999999999;;;3.23;76.88
77749;BME280;66938;52.084;5.228;2023-02-28T03:22:00;103301.0;;;3.27;76.69
77749;BME280;66938;52.084;5.228;2023-02-28T03:23:45;103305.0;;;3.23;76.78
77749;BME280;66938;52.084;5.228;2023-02-28T03:27:17;103308.99999999999;;;3.29;76.47
77749;BME280;66938;52.084;5.228;2023-02-28T03:29:02;103307.0;;;3.39;76.16
77749;BME280;66938;52.084;5.228;2023-02-28T03:30:46;103307.0;;;3.27;76.36
77749;BME280;66938;52.084;5.228;2023-02-28T03:32:29;103309.99999999999;;;3.32;76.67
77749;BME280;66938;52.084;5.228;2023-02-28T03:34:12;103308.99999999999;;;3.35;76.95
77749;BME280;66938;52.084;5.228;2023-02-28T03:37:38;103311.99999999999;;;3.33;77.52
77749;BME280;66938;52.084;5.228;2023-02-28T03:39:19;103314.00000000001;;;3.27;77.62
77749;BME280;66938;52.084;5.228;2023-02-28T03:41:02;103313.00000000001;;;3.3;76.87
77749;BME280;66938;52.084;5.228;2023-02-28T03:42:43;103309.99999999999;;;3.29;77.22
77749;BME280;66938;52.084;5.228;2023-02-28T03:46:07;103314.00000000001;;;3.27;77.42
77749;BME280;66938;52.084;5.228;2023-02-28T03:47:49;103307.0;;;3.27;77.19
77749;BME280;66938;52.084;5.228;2023-02-28T03:49:32;103308.0;;;3.23;77.41
77749;BME280;66938;52.084;5.228;2023-02-28T03:51:14;103317.0;;;3.23;77.55
77749;BME280;66938;52.084;5.228;2023-02-28T03:52:55;103319.0;;;3.25;77.38
77749;BME280;66938;52.084;5.228;2023-02-28T03:56:23;103316.00000000001;;;3.21;78.02
77749;BME280;66938;52.084;5.228;2023-02-28T03:58:09;103317.0;;;3.21;77.39
77749;BME280;66938;52.084;5.228;2023-02-28T03:59:55;103317.0;;;3.29;77.73
77749;BME280;66938;52.084;5.228;2023-02-28T04:01:38;103324.0;;;3.33;77.33
77749;BME280;66938;52.084;5.228;2023-02-28T04:03:16;103323.0;;;3.4;76.97
77749;BME280;66938;52.084;5.228;2023-02-28T04:06:31;103322.0;;;3.51;76.49
77749;BME280;66938;52.084;5.228;2023-02-28T04:08:08;103326.0;;;3.59;76.02
77749;BME280;66938;52.084;5.228;2023-02-28T04:09:44;103331.0;;;3.62;75.55
77749;BME280;66938;52.084;5.228;2023-02-28T04:13:02;103328.0;;;3.63;75.66
77749;BME280;66938;52.084;5.228;2023-02-28T04:14:38;103319.0;;;3.63;75.42
77749;BME280;66938;52.084;5.228;2023-02-28T04:16:15;103330.0;;;3.75;73.91
77749;BME280;66938;52.084;5.228;2023-02-28T04:17:52;103326.0;;;3.81;73.42
77749;BME280;66938;52.084;5.228;2023-02-28T04:21:04;103324.0;;;3.85;72.66
77749;BME280;66938;52.084;5.228;2023-02-28T04:22:41;103329.0;;;3.92;72.02
77749;BME280;66938;52.084;5.228;2023-02-28T04:24:20;103330.0;;;3.96;71.25
77749;BME280;66938;52.084;5.228;2023-02-28T04:27:33;103331.0;;;4.0;70.91
77749;BME280;66938;52.084;5.228;2023-02-28T04:29:11;103327.0;;;3.96;70.47
77749;BME280;66938;52.084;5.228;2023-02-28T04:30:54;103328.0;;;4.04;70.31
77749;BME280;66938;52.084;5.228;2023-02-28T04:32:31;103333.99999999999;;;4.03;69.25
77749;BME280;66938;52.084;5.228;2023-02-28T04:35:43;103333.0;;;4.05;69.37
77749;BME280;66938;52.084;5.228;2023-02-28T04:37:19;103331.0;;;4.05;68.83
77749;BME280;66938;52.084;5.228;2023-02-28T04:38:56;103330.0;;;4.04;68.28
77749;BME280;66938;52.084;5.228;2023-02-28T04:42:09;103330.0;;;4.04;68.31
77749;BME280;66938;52.084;5.228;2023-02-28T04:43:46;103342.0;;;4.07;68.08
77749;BME280;66938;52.084;5.228;2023-02-28T04:45:22;103342.0;;;4.01;66.85
77749;BME280;66938;52.084;5.228;2023-02-28T04:48:36;103342.0;;;4.03;66.16
77749;BME280;66938;52.084;5.228;2023-02-28T04:50:14;103345.0;;;4.03;65.66
77749;BME280;66938;52.084;5.228;2023-02-28T04:51:50;103339.00000000001;;;4.09;65.83
77749;BME280;66938;52.084;5.228;2023-02-28T04:53:27;103336.99999999999;;;4.03;65.89
77749;BME280;66938;52.084;5.228;2023-02-28T04:56:42;103338.00000000001;;;4.03;65.02
77749;BME280;66938;52.084;5.228;2023-02-28T04:58:18;103343.0;;;4.04;64.74
77749;BME280;66938;52.084;5.228;2023-02-28T04:59:54;103343.0;;;3.93;65.36
77749;BME280;66938;52.084;5.228;2023-02-28T05:03:09;103342.0;;;3.89;64.99
77749;BME280;66938;52.084;5.228;2023-02-28T05:04:45;103336.99999999999;;;3.88;64.22
77749;BME280;66938;52.084;5.228;2023-02-28T05:06:22;103342.0;;;3.81;64.47
77749;BME280;66938;52.084;5.228;2023-02-28T05:09:35;103344.0;;;3.71;64.89
77749;BME280;66938;52.084;5.228;2023-02-28T05:11:16;103339.00000000001;;;3.77;64.74
77749;BME280;66938;52.084;5.228;2023-02-28T05:12:52;103345.0;;;3.71;64.92
77749;BME280;66938;52.084;5.228;2023-02-28T05:14:29;103339.00000000001;;;3.74;64.91
77749;BME280;66938;52.084;5.228;2023-02-28T05:17:42;103334.99999999999;;;3.77;64.33
77749;BME280;66938;52.084;5.228;2023-02-28T05:19:19;103340.00000000001;;;3.68;64.72
77749;BME280;66938;52.084;5.228;2023-02-28T05:20:55;103340.00000000001;;;3.69;64.73
77749;BME280;66938;52.084;5.228;2023-02-28T05:24:10;103341.00000000001;;;3.62;64.05
77749;BME280;66938;52.084;5.228;2023-02-28T05:25:48;103344.0;;;3.7;64.23
77749;BME280;66938;52.084;5.228;2023-02-28T05:27:24;103348.0;;;3.66;64.27
77749;BME280;66938;52.084;5.228;2023-02-28T05:30:36;103349.0;;;3.66;64.39
77749;BME280;66938;52.084;5.228;2023-02-28T05:32:12;103347.0;;;3.58;65.35
77749;BME280;66938;52.084;5.228;2023-02-28T05:33:50;103351.0;;;3.57;65.89
77749;BME280;66938;52.084;5.228;2023-02-28T05:35:26;103353.0;;;3.48;66.78
77749;BME280;66938;52.084;5.228;2023-02-28T05:38:39;103350.0;;;3.55;66.92
77749;BME280;66938;52.084;5.228;2023-02-28T05:40:15;103353.0;;;3.42;67.95
77749;BME280;66938;52.084;5.228;2023-02-28T05:41:52;103356.0;;;3.32;68.55
77749;BME280;66938;52.084;5.228;2023-02-28T05:45:05;103357.0;;;3.3;69.0
77749;BME280;66938;52.084;5.228;2023-02-28T05:46:41;103350.0;;;3.26;69.44
77749;BME280;66938;52.084;5.228;2023-02-28T05:48:17;103349.0;;;3.19;69.94
77749;BME280;66938;52.084;5.228;2023-02-28T05:49:54;103358.99999999999;;;3.03;71.12
77749;BME280;66938;52.084;5.228;2023-02-28T05:53:06;103351.0;;;2.96;71.22
77749;BME280;66938;52.084;5.228;2023-02-28T05:54:42;103355.0;;;2.74;73.5
77749;BME280;66938;52.084;5.228;2023-02-28T05:56:18;103358.0;;;2.7;73.14
77749;BME280;66938;52.084;5.228;2023-02-28T05:59:30;103353.0;;;2.54;73.5
77749;BME280;66938;52.084;5.228;2023-02-28T06:01:32;103356.0;;;2.6;73.74
77749;BME280;66938;52.084;5.228;2023-02-28T06:03:09;103354.0;;;2.52;74.08
77749;BME280;66938;52.084;5.228;2023-02-28T06:04:45;103354.0;;;2.54;74.91
77749;BME280;66938;52.084;5.228;2023-02-28T06:07:58;103357.0;;;2.54;74.3
77749;BME280;66938;52.084;5.228;2023-02-28T06:09:34;103357.0;;;2.31;76.47
77749;BME280;66938;52.084;5.228;2023-02-28T06:11:12;103357.0;;;2.36;75.91
77749;BME280;66938;52.084;5.228;2023-02-28T06:14:25;103361.99999999999;;;2.29;75.98
77749;BME280;66938;52.084;5.228;2023-02-28T06:16:01;103361.99999999999;;;2.21;76.16
77749;BME280;66938;52.084;5.228;2023-02-28T06:17:37;103361.99999999999;;;2.19;76.56
77749;BME280;66938;52.084;5.228;2023-02-28T06:19:13;103352.0;;;2.14;76.77
77749;BME280;66938;52.084;5.228;2023-02-28T06:22:28;103355.0;;;2.14;76.91
77749;BME280;66938;52.084;5.228;2023-02-28T06:24:05;103350.0;;;2.08;77.52
77749;BME280;66938;52.084;5.228;2023-02-28T06:25:44;103349.0;;;2.15;76.25
77749;BME280;66938;52.084;5.228;2023-02-28T06:28:57;103349.0;;;2.02;77.88
77749;BME280;66938;52.084;5.228;2023-02-28T06:30:33;103354.0;;;2.11;77.56
77749;BME280;66938;52.084;5.228;2023-02-28T06:32:09;103358.0;;;1.98;78.17
77749;BME280;66938;52.084;5.228;2023-02-28T06:35:22;103347.0;;;1.86;78.41
77749;BME280;66938;52.084;5.228;2023-02-28T06:36:59;103353.0;;;1.91;78.94
77749;BME280;66938;52.084;5.228;2023-02-28T06:38:36;103355.0;;;1.94;78.69
77749;BME280;66938;52.084;5.228;2023-02-28T06:40:14;103358.99999999999;;;1.97;78.63
77749;BME280;66938;52.084;5.228;2023-02-28T06:43:28;103358.0;;;1.91;78.8
77749;BME280;66938;52.084;5.228;2023-02-28T06:45:06;103358.0;;;1.87;79.02
77749;BME280;66938;52.084;5.228;2023-02-28T06:46:43;103354.0;;;1.88;79.06
77749;BME280;66938;52.084;5.228;2023-02-28T06:49:57;103355.0;;;1.92;79.38
77749;BME280;66938;52.084;5.228;2023-02-28T06:51:33;103357.0;;;1.97;79.28
77749;BME280;66938;52.084;5.228;2023-02-28T06:53:09;103364.00000000001;;;1.95;79.69
77749;BME280;66938;52.084;5.228;2023-02-28T06:54:45;103365.00000000001;;;1.99;79.33
77749;BME280;66938;52.084;5.228;2023-02-28T06:57:57;103364.00000000001;;;1.89;79.92
77749;BME280;66938;52.084;5.228;2023-02-28T06:59:35;103358.0;;;1.92;79.94
77749;BME280;66938;52.084;5.228;2023-02-28T07:01:11;103356.0;;;1.96;80.11
77749;BME280;66938;52.084;5.228;2023-02-28T07:04:25;103354.0;;;2.0;80.11
77749;BME280;66938;52.084;5.228;2023-02-28T07:06:01;103351.0;;;2.04;80.03
77749;BME280;66938;52.084;5.228;2023-02-28T07:07:39;103357.0;;;2.02;80.3
77749;BME280;66938;52.084;5.228;2023-02-28T07:10:52;103356.0;;;2.02;80.34
77749;BME280;66938;52.084;5.228;2023-02-28T07:12:29;103354.0;;;2.12;80.16
77749;BME280;66938;52.084;5.228;2023-02-28T07:14:05;103354.0;;;2.14;79.89
77749;BME280;66938;52.084;5.228;2023-02-28T07:15:41;103364.00000000001;;;2.16;80.06
77749;BME280;66938;52.084;5.228;2023-02-28T07:18:53;103367.0;;;2.19;79.97
77749;BME280;66938;52.084;5.228;2023-02-28T07:20:30;103368.0;;;2.19;80.27
77749;BME280;66938;52.084;5.228;2023-02-28T07:22:07;103370.0;;;2.19;80.66
77749;BME280;66938;52.084;5.228;2023-02-28T07:25:20;103366.00000000001;;;2.31;79.94
77749;BME280;66938;52.084;5.228;2023-02-28T07:26:56;103366.00000000001;;;2.27;80.27
77749;BME280;66938;52.084;5.228;2023-02-28T07:28:33;103367.0;;;2.23;80.73
77749;BME280;66938;52.084;5.228;2023-02-28T07:31:46;103364.00000000001;;;2.17;80.97
77749;BME280;66938;52.084;5.228;2023-02-28T07:33:23;103357.0;;;2.44;79.75
77749;BME280;66938;52.084;5.228;2023-02-28T07:34:59;103364.00000000001;;;2.52;79.59
77749;BME280;66938;52.084;5.228;2023-02-28T07:36:35;103368.0;;;2.56;79.49
77749;BME280;66938;52.084;5.228;2023-02-28T07:39:47;103367.0;;;2.39;79.95
77749;BME280;66938;52.084;5.228;2023-02-28T07:41:23;103369.0;;;2.41;80.24
77749;BME280;66938;52.084;5.228;2023-02-28T07:43:00;103358.99999999999;;;2.48;80.08
77749;BME280;66938;52.084;5.228;2023-02-28T07:46:15;103363.00000000001;;;2.44;80.72
77749;BME280;66938;52.084;5.228;2023-02-28T07:47:52;103365.00000000001;;;2.48;79.94
77749;BME280;66938;52.084;5.228;2023-02-28T07:49:29;103369.0;;;2.65;79.28
77749;BME280;66938;52.084;5.228;2023-02-28T07:52:41;103369.0;;;2.61;79.5
77749;BME280;66938;52.084;5.228;2023-02-28T07:54:18;103372.0;;;2.72;79.2
77749;BME280;66938;52.084;5.228;2023-02-28T07:55:55;103378.0;;;2.81;79.16
77749;BME280;66938;52.084;5.228;2023-02-28T07:57:31;103377.0;;;2.83;78.94
77749;BME280;66938;52.084;5.228;2023-02-28T08:00:44;103379.0;;;2.79;79.05
77749;BME280;66938;52.084;5.228;2023-02-28T08:02:20;103373.0;;;2.64;79.78
77749;BME280;66938;52.084;5.228;2023-02-28T08:03:56;103380.0;;;2.83;79.09
77749;BME280;66938;52.084;5.228;2023-02-28T08:07:08;103392.0;;;3.02;78.27
77749;BME280;66938;52.084;5.228;2023-02-28T08:08:45;103388.00000000001;;;2.97;79.11
77749;BME280;66938;52.084;5.228;2023-02-28T08:10:20;103367.0;;;2.89;79.27
77749;BME280;66938;52.084;5.228;2023-02-28T08:13:33;103377.0;;;3.04;78.66
77749;BME280;66938;52.084;5.228;2023-02-28T08:15:09;103377.0;;;3.18;77.92
77749;BME280;66938;52.084;5.228;2023-02-28T08:16:46;103392.0;;;3.22;77.39
77749;BME280;66938;52.084;5.228;2023-02-28T08:20:00;103390.00000000001;;;3.04;77.64
77749;BME280;66938;52.084;5.228;2023-02-28T08:21:36;103393.0;;;3.11;77.36
77749;BME280;66938;52.084;5.228;2023-02-28T08:23:12;103398.0;;;3.18;77.38
77749;BME280;66938;52.084;5.228;2023-02-28T08:24:49;103392.0;;;3.05;77.87
77749;BME280;66938;52.084;5.228;2023-02-28T08:28:02;103397.0;;;3.28;77.42
77749;BME280;66938;52.084;5.228;2023-02-28T08:29:38;103405.0;;;3.42;76.53
77749;BME280;66938;52.084;5.228;2023-02-28T08:31:16;103396.0;;;3.47;75.69
77749;BME280;66938;52.084;5.228;2023-02-28T08:34:29;103398.0;;;3.58;75.06
77749;BME280;66938;52.084;5.228;2023-02-28T08:36:06;103391.00000000001;;;3.63;74.55
77749;BME280;66938;52.084;5.228;2023-02-28T08:37:43;103388.00000000001;;;3.53;74.66
77749;BME280;66938;52.084;5.228;2023-02-28T08:40:57;103392.0;;;3.66;73.69
77749;BME280;66938;52.084;5.228;2023-02-28T08:42:35;103392.0;;;3.73;73.55
77749;BME280;66938;52.084;5.228;2023-02-28T08:44:12;103390.00000000001;;;3.65;73.86
77749;BME280;66938;52.084;5.228;2023-02-28T08:45:51;103393.0;;;3.75;73.24
77749;BME280;66938;52.084;5.228;2023-02-28T08:49:03;103391.00000000001;;;3.73;72.87
77749;BME280;66938;52.084;5.228;2023-02-28T08:50:39;103391.00000000001;;;3.81;72.73
77749;BME280;66938;52.084;5.228;2023-02-28T08:52:16;103391.00000000001;;;3.88;71.92
77749;BME280;66938;52.084;5.228;2023-02-28T08:55:30;103394.0;;;3.9;71.59
77749;BME280;66938;52.084;5.228;2023-02-28T08:57:06;103392.0;;;3.93;71.09
77749;BME280;66938;52.084;5.228;2023-02-28T08:58:43;103394.0;;;3.87;71.62
77749;BME280;66938;52.084;5.228;2023-02-28T09:00:21;103391.00000000001;;;3.79;71.72
77749;BME280;66938;52.084;5.228;2023-02-28T09:03:34;103389.00000000001;;;3.87;71.27
77749;BME280;66938;52.084;5.228;2023-02-28T09:05:10;103379.0;;;3.93;70.67
77749;BME280;66938;52.084;5.228;2023-02-28T09:06:46;103383.99999999999;;;3.95;69.47
77749;BME280;66938;52.084;5.228;2023-02-28T09:09:59;103390.00000000001;;;3.95;68.39
77749;BME280;66938;52.084;5.228;2023-02-28T09:11:36;103392.0;;;3.94;68.19
77749;BME280;66938;52.084;5.228;2023-02-28T09:13:13;103392.0;;;4.08;67.64
77749;BME280;66938;52.084;5.228;2023-02-28T09:16:25;103402.0;;;4.07;66.23
77749;BME280;66938;52.084;5.228;2023-02-28T09:18:01;103402.0;;;4.1;65.53
77749;BME280;66938;52.084;5.228;2023-02-28T09:19:37;103401.0;;;4.01;66.35
77749;BME280;66938;52.084;5.228;2023-02-28T09:21:15;103394.0;;;4.07;66.47
77749;BME280;66938;52.084;5.228;2023-02-28T09:24:28;103396.0;;;4.12;66.06
77749;BME280;66938;52.084;5.228;2023-02-28T09:26:05;103390.00000000001;;;4.07;65.81
77749;BME280;66938;52.084;5.228;2023-02-28T09:27:42;103398.0;;;4.21;65.11
77749;BME280;66938;52.084;5.228;2023-02-28T09:30:54;103400.0;;;4.18;62.76
77749;BME280;66938;52.084;5.228;2023-02-28T09:32:31;103398.0;;;4.29;64.8
77749;BME280;66938;52.084;5.228;2023-02-28T09:34:07;103394.0;;;4.26;65.02
77749;BME280;66938;52.084;5.228;2023-02-28T09:37:20;103394.0;;;4.45;63.68
77749;BME280;66938;52.084;5.228;2023-02-28T09:38:56;103388.00000000001;;;4.64;60.47
77749;BME280;66938;52.084;5.228;2023-02-28T09:40:35;103390.00000000001;;;4.76;58.09
77749;BME280;66938;52.084;5.228;2023-02-28T09:42:21;103390.00000000001;;;4.86;57.35
77749;BME280;66938;52.084;5.228;2023-02-28T09:45:53;103392.0;;;4.87;56.71
77749;BME280;66938;52.084;5.228;2023-02-28T09:47:33;103392.0;;;5.01;55.5
77749;BME280;66938;52.084;5.228;2023-02-28T09:49:14;103396.0;;;5.12;55.65
77749;BME280;66938;52.084;5.228;2023-02-28T09:50:55;103394.0;;;5.25;56.09
77749;BME280;66938;52.084;5.228;2023-02-28T09:52:36;103389.00000000001;;;5.39;57.27
77749;BME280;66938;52.084;5.228;2023-02-28T09:55:55;103388.00000000001;;;5.53;56.6
77749;BME280;66938;52.084;5.228;2023-02-28T09:57:37;103389.00000000001;;;5.69;56.34
77749;BME280;66938;52.084;5.228;2023-02-28T09:59:26;103390.00000000001;;;5.75;51.64
77749;BME280;66938;52.084;5.228;2023-02-28T10:01:22;103389.00000000001;;;5.85;51.12
77749;BME280;66938;52.084;5.228;2023-02-28T10:03:24;103393.0;;;5.92;47.05
77749;BME280;66938;52.084;5.228;2023-02-28T10:06:46;103398.0;;;5.82;43.95
77749;BME280;66938;52.084;5.228;2023-02-28T10:08:26;103397.0;;;5.91;43.98
77749;BME280;66938;52.084;5.228;2023-02-28T10:12:02;103398.0;;;5.95;43.08
77749;BME280;66938;52.084;5.228;2023-02-28T10:13:48;103388.00000000001;;;6.0;42.58
77749;BME280;66938;52.084;5.228;2023-02-28T10:17:10;103386.99999999999;;;6.11;44.11
77749;BME280;66938;52.084;5.228;2023-02-28T10:18:52;103392.0;;;6.1;41.92
77749;BME280;66938;52.084;5.228;2023-02-28T10:20:37;103388.00000000001;;;6.14;43.43
77749;BME280;66938;52.084;5.228;2023-02-28T10:22:17;103392.0;;;6.09;43.03
77749;BME280;66938;52.084;5.228;2023-02-28T10:24:03;103386.99999999999;;;6.14;41.74
77749;BME280;66938;52.084;5.228;2023-02-28T10:27:35;103380.0;;;6.14;41.08
77749;BME280;66938;52.084;5.228;2023-02-28T10:29:11;103377.0;;;6.27;41.63
77749;BME280;66938;52.084;5.228;2023-02-28T10:30:49;103368.0;;;6.33;42.73
77749;BME280;66938;52.084;5.228;2023-02-28T10:32:27;103364.00000000001;;;6.3;41.51
77749;BME280;66938;52.084;5.228;2023-02-28T10:35:48;103367.0;;;6.45;43.13
77749;BME280;66938;52.084;5.228;2023-02-28T10:37:24;103365.00000000001;;;6.59;43.64
77749;BME280;66938;52.084;5.228;2023-02-28T10:39:34;103358.0;;;6.62;41.04
77749;BME280;66938;52.084;5.228;2023-02-28T10:41:13;103359.99999999999;;;6.75;41.63
77749;BME280;66938;52.084;5.228;2023-02-28T10:42:58;103363.00000000001;;;6.8;41.07
77749;BME280;66938;52.084;5.228;2023-02-28T10:46:13;103363.00000000001;;;6.83;41.45
77749;BME280;66938;52.084;5.228;2023-02-28T10:47:54;103367.0;;;6.74;40.39
77749;BME280;66938;52.084;5.228;2023-02-28T10:49:31;103367.0;;;6.65;39.28
77749;BME280;66938;52.084;5.228;2023-02-28T10:52:46;103365.00000000001;;;6.64;41.22
77749;BME280;66938;52.084;5.228;2023-02-28T10:54:26;103354.0;;;6.7;40.06